Time;durP1;ratioP1;P1;durP2;ratioP2;P2;SDS_P1;SDS_P2;PMS_P1;PMS_P2;Temp;Humidity;BMP_temperature;BMP_pressure;BME280_temperature;BME280_humidity;BME280_pressure;Samples;Min_cycle;Max_cycle;Signal;HPM_P1;HPM_P2
2021/09/14 00:02:13;;;;;;;11.63;7.55;;;;;;;;;;5048476;28;20491;-58
2021/09/14 00:04:45;;;;;;;11.30;8.45;;;;;;;;;;5059158;28;21034;-56
2021/09/14 00:07:11;;;;;;;14.10;8.55;;;;;;;;;;5040988;28;20064;-56
2021/09/14 00:09:36;;;;;;;13.23;8.13;;;;;;;;;;5040242;28;20038;-56
2021/09/14 00:12:02;;;;;;;12.55;8.32;;;;;;;;;;5037983;28;20466;-56
2021/09/14 00:14:28;;;;;;;11.80;8.63;;;;;;;;;;5040433;28;20043;-56
2021/09/14 00:16:53;;;;;;;12.68;8.15;;;;;;;;;;5037480;28;20021;-56
2021/09/14 00:19:19;;;;;;;13.93;8.43;;;;;;;;;;5041323;28;20029;-56
2021/09/14 00:21:47;;;;;;;12.52;8.15;;;;;;;;;;5043314;28;20371;-56
2021/09/14 00:24:12;;;;;;;13.65;8.82;;;;;;;;;;5043033;28;20036;-56
2021/09/14 00:26:38;;;;;;;12.93;9.02;;;;;;;;;;5036304;28;20037;-56
2021/09/14 00:29:03;;;;;;;15.02;8.93;;;;;;;;;;5038134;28;20043;-56
2021/09/14 00:31:29;;;;;;;14.85;8.90;;;;;;;;;;5040844;28;20029;-56
2021/09/14 00:33:55;;;;;;;12.48;9.07;;;;;;;;;;5039127;28;20484;-56
2021/09/14 00:36:20;;;;;;;14.15;9.63;;;;;;;;;;5039302;28;20039;-56
2021/09/14 00:38:46;;;;;;;12.18;8.48;;;;;;;;;;5041811;28;20113;-56
2021/09/14 00:41:12;;;;;;;15.57;8.82;;;;;;;;;;5035571;28;20120;-56
2021/09/14 00:43:37;;;;;;;14.88;9.25;;;;;;;;;;5038507;28;20032;-55
2021/09/14 00:46:03;;;;;;;12.45;8.82;;;;;;;;;;5047982;28;20459;-58
2021/09/14 00:48:29;;;;;;;11.93;8.40;;;;;;;;;;5039150;28;20029;-58
2021/09/14 00:50:54;;;;;;;13.35;8.55;;;;;;;;;;5038163;28;20044;-58
2021/09/14 00:53:20;;;;;;;12.10;9.25;;;;;;;;;;5034523;28;20227;-58
2021/09/14 00:55:46;;;;;;;14.32;9.25;;;;;;;;;;5037036;28;20017;-57
2021/09/14 00:58:11;;;;;;;15.10;9.63;;;;;;;;;;5034794;28;20502;-58
2021/09/14 01:00:37;;;;;;;13.15;8.43;;;;;;;;;;5039921;28;20033;-58
2021/09/14 01:03:03;;;;;;;14.05;8.50;;;;;;;;;;5035258;28;20471;-57
2021/09/14 01:05:28;;;;;;;13.82;9.13;;;;;;;;;;5036830;28;20504;-58
2021/09/14 01:07:54;;;;;;;13.95;8.85;;;;;;;;;;5043996;28;20144;-57
2021/09/14 01:10:20;;;;;;;12.18;8.90;;;;;;;;;;5044404;28;20071;-55
2021/09/14 01:12:47;;;;;;;13.10;8.43;;;;;;;;;;5043768;28;20515;-57
2021/09/14 01:15:12;;;;;;;12.07;8.27;;;;;;;;;;5026775;28;20323;-58
2021/09/14 01:17:38;;;;;;;14.73;8.60;;;;;;;;;;5029988;28;20488;-57
2021/09/14 01:20:04;;;;;;;13.77;8.32;;;;;;;;;;5022915;28;20064;-57
2021/09/14 01:22:31;;;;;;;13.13;8.32;;;;;;;;;;5027468;28;20057;-57
2021/09/14 01:24:58;;;;;;;14.05;9.27;;;;;;;;;;5022889;28;20117;-58
2021/09/14 01:27:24;;;;;;;14.35;8.05;;;;;;;;;;5024445;28;20408;-57
2021/09/14 01:32:33;;;;;;;13.00;8.25;;;;;;;;;;5027594;28;20095;-57
2021/09/14 01:35:10;;;;;;;12.68;8.20;;;;;;;;;;5022332;28;20435;-57
2021/09/14 01:37:35;;;;;;;13.57;8.52;;;;;;;;;;5025054;28;20032;-57
2021/09/14 01:40:01;;;;;;;12.63;8.35;;;;;;;;;;5025695;28;20536;-57
2021/09/14 01:42:26;;;;;;;15.02;8.25;;;;;;;;;;5027670;28;20058;-58
2021/09/14 01:44:52;;;;;;;12.13;8.07;;;;;;;;;;5022176;28;20026;-58
2021/09/14 01:47:18;;;;;;;14.05;9.35;;;;;;;;;;5025660;28;20091;-58
2021/09/14 01:49:43;;;;;;;13.80;8.02;;;;;;;;;;5025380;28;20511;-57
2021/09/14 01:52:09;;;;;;;12.25;8.35;;;;;;;;;;5025155;28;20049;-58
2021/09/14 01:54:34;;;;;;;12.45;7.82;;;;;;;;;;5021212;28;20103;-58
2021/09/14 01:57:00;;;;;;;13.68;8.57;;;;;;;;;;5026259;28;20490;-58
2021/09/14 01:59:25;;;;;;;12.30;8.70;;;;;;;;;;5025470;28;20520;-56
2021/09/14 02:02:15;;;;;;;16.02;8.88;;;;;;;;;;5024081;28;20032;-57
2021/09/14 03:00:55;;;;;;;22.02;10.23;;;;;;;;;;5018912;28;20102;-57
2021/09/14 03:03:21;;;;;;;15.60;9.95;;;;;;;;;;5020027;28;20029;-56
2021/09/14 03:05:46;;;;;;;17.23;10.07;;;;;;;;;;5024739;28;20109;-56
2021/09/14 03:08:12;;;;;;;15.25;10.35;;;;;;;;;;5023079;28;20021;-57
2021/09/14 03:10:37;;;;;;;15.90;10.05;;;;;;;;;;5021583;28;20037;-57
2021/09/14 03:13:02;;;;;;;18.30;10.18;;;;;;;;;;5025417;28;20543;-57
2021/09/14 03:15:28;;;;;;;16.98;10.30;;;;;;;;;;5024763;28;20032;-56
2021/09/14 03:17:53;;;;;;;16.88;10.95;;;;;;;;;;5019767;28;20025;-56
2021/09/14 03:20:19;;;;;;;17.83;10.10;;;;;;;;;;5024757;28;20499;-57
2021/09/14 03:22:44;;;;;;;17.75;10.73;;;;;;;;;;5018780;28;20041;-57
2021/09/14 03:25:10;;;;;;;15.50;9.75;;;;;;;;;;5000543;28;20079;-58
2021/09/14 03:27:36;;;;;;;19.55;11.25;;;;;;;;;;5026007;28;20026;-57
2021/09/14 03:30:03;;;;;;;18.02;10.85;;;;;;;;;;5020466;28;20022;-57
2021/09/14 03:32:28;;;;;;;18.42;11.65;;;;;;;;;;5022493;28;20037;-56
2021/09/14 03:34:54;;;;;;;18.45;12.40;;;;;;;;;;5022122;28;20029;-57
2021/09/14 03:37:19;;;;;;;17.33;11.18;;;;;;;;;;5020923;28;20041;-57
2021/09/14 03:39:44;;;;;;;24.27;13.05;;;;;;;;;;5025435;28;20032;-56
2021/09/14 03:42:10;;;;;;;19.85;10.85;;;;;;;;;;5025014;28;20111;-57
2021/09/14 03:44:35;;;;;;;17.55;11.20;;;;;;;;;;5018679;28;20033;-57
2021/09/14 03:47:01;;;;;;;19.60;12.13;;;;;;;;;;5021530;28;20029;-57
2021/09/14 03:49:26;;;;;;;20.00;10.68;;;;;;;;;;5024121;28;20033;-57
2021/09/14 03:51:51;;;;;;;16.33;10.55;;;;;;;;;;5021241;28;20025;-56
2021/09/14 03:54:17;;;;;;;16.40;10.45;;;;;;;;;;5020245;28;20032;-56
2021/09/14 03:56:42;;;;;;;14.43;9.73;;;;;;;;;;5028677;28;20029;-56
2021/09/14 03:59:08;;;;;;;15.25;9.88;;;;;;;;;;5017447;28;20492;-57
2021/09/14 04:01:37;;;;;;;19.65;11.38;;;;;;;;;;5021918;28;20091;-57
2021/09/14 04:04:12;;;;;;;16.02;10.48;;;;;;;;;;5019805;28;20029;-57
2021/09/14 04:09:41;;;;;;;13.50;8.38;;;;;;;;;;5009811;28;20057;-56
2021/09/14 04:12:07;;;;;;;14.60;8.80;;;;;;;;;;5012244;28;20091;-56
2021/09/14 04:14:33;;;;;;;16.33;10.00;;;;;;;;;;5021446;28;20032;-57
2021/09/14 04:16:58;;;;;;;18.15;9.55;;;;;;;;;;5019904;28;20065;-56
2021/09/14 04:19:23;;;;;;;15.63;8.75;;;;;;;;;;5024133;28;20020;-56
2021/09/14 04:21:50;;;;;;;15.23;8.52;;;;;;;;;;5021818;28;20032;-56
2021/09/14 04:24:15;;;;;;;13.85;9.05;;;;;;;;;;5023013;28;20061;-57
2021/09/14 04:26:40;;;;;;;12.48;8.43;;;;;;;;;;5024842;28;20179;-56
2021/09/14 04:29:06;;;;;;;13.23;8.10;;;;;;;;;;5017281;28;20029;-57
2021/09/14 04:31:31;;;;;;;13.55;8.90;;;;;;;;;;5022597;28;20033;-56
2021/09/14 04:33:57;;;;;;;14.50;9.30;;;;;;;;;;5021157;28;20521;-56
2021/09/14 04:36:23;;;;;;;13.68;9.07;;;;;;;;;;5024085;28;20022;-56
2021/09/14 04:38:48;;;;;;;15.57;7.85;;;;;;;;;;5016904;28;20033;-56
2021/09/14 04:41:14;;;;;;;14.88;9.30;;;;;;;;;;5021640;28;20029;-57
2021/09/14 04:43:39;;;;;;;16.25;9.63;;;;;;;;;;5016171;28;20061;-56
2021/09/14 04:46:05;;;;;;;20.15;11.18;;;;;;;;;;5018608;28;20119;-57
2021/09/14 04:48:30;;;;;;;17.73;10.38;;;;;;;;;;5021526;28;20025;-56
2021/09/14 04:50:56;;;;;;;15.93;10.82;;;;;;;;;;5024445;28;20114;-56
2021/09/14 04:53:21;;;;;;;21.13;10.70;;;;;;;;;;5027705;28;20087;-56
2021/09/14 04:55:47;;;;;;;18.73;10.38;;;;;;;;;;5027693;28;20521;-56
2021/09/14 04:58:12;;;;;;;16.35;10.45;;;;;;;;;;5025576;28;20021;-56
2021/09/14 05:00:38;;;;;;;16.95;10.70;;;;;;;;;;5022345;28;20080;-56
2021/09/14 05:03:03;;;;;;;17.45;10.32;;;;;;;;;;5019764;28;20808;-52
2021/09/14 05:05:29;;;;;;;16.23;10.75;;;;;;;;;;5023846;28;20029;-53
2021/09/14 05:07:54;;;;;;;16.33;10.45;;;;;;;;;;5025753;28;20091;-53
2021/09/14 05:10:20;;;;;;;16.63;10.73;;;;;;;;;;5025750;28;20052;-53
2021/09/14 05:12:46;;;;;;;18.42;11.00;;;;;;;;;;5025398;28;20029;-56
2021/09/14 05:15:11;;;;;;;20.70;12.50;;;;;;;;;;5017985;28;20084;-57
2021/09/14 05:17:37;;;;;;;21.40;11.18;;;;;;;;;;5023852;28;20033;-57
2021/09/14 05:20:06;;;;;;;16.80;11.25;;;;;;;;;;5021265;28;20025;-57
2021/09/14 05:22:35;;;;;;;19.33;10.32;;;;;;;;;;5024315;28;20103;-56
2021/09/14 05:25:02;;;;;;;41.45;19.70;;;;;;;;;;5021712;28;20104;-56
2021/09/14 05:27:27;;;;;;;23.95;12.63;;;;;;;;;;5015628;28;20037;-56
2021/09/14 05:29:53;;;;;;;19.23;11.00;;;;;;;;;;5027016;28;20747;-56
2021/09/14 05:32:19;;;;;;;20.92;9.38;;;;;;;;;;5025701;28;20025;-56
2021/09/14 05:34:46;;;;;;;15.23;9.25;;;;;;;;;;5027165;28;20029;-56
2021/09/14 05:37:11;;;;;;;15.52;9.50;;;;;;;;;;5014673;28;20120;-57
2021/09/14 05:39:37;;;;;;;21.45;10.95;;;;;;;;;;5021791;28;20117;-56
2021/09/14 05:42:02;;;;;;;21.35;11.13;;;;;;;;;;5025992;28;20120;-56
2021/09/14 05:44:28;;;;;;;23.88;13.43;;;;;;;;;;5017612;28;20068;-56
2021/09/14 05:46:53;;;;;;;19.25;11.88;;;;;;;;;;5030692;28;20407;-56
2021/09/14 05:49:19;;;;;;;33.03;12.02;;;;;;;;;;5023598;28;20049;-57
2021/09/14 05:51:44;;;;;;;104.57;16.00;;;;;;;;;;5026138;28;20025;-56
2021/09/14 05:54:10;;;;;;;109.55;18.90;;;;;;;;;;5023849;28;20033;-57
2021/09/14 05:56:35;;;;;;;119.00;17.60;;;;;;;;;;5021428;28;20514;-56
2021/09/14 05:59:01;;;;;;;80.20;15.05;;;;;;;;;;5028385;28;20036;-56
2021/09/14 06:01:28;;;;;;;58.42;14.05;;;;;;;;;;5030089;28;20443;-57
2021/09/14 06:03:54;;;;;;;33.38;12.85;;;;;;;;;;5025267;28;20064;-56
2021/09/14 06:06:20;;;;;;;56.95;24.15;;;;;;;;;;5024617;28;20029;-56
2021/09/14 06:08:45;;;;;;;41.25;18.02;;;;;;;;;;5026110;28;20107;-56
2021/09/14 06:11:11;;;;;;;30.50;14.40;;;;;;;;;;5017977;28;20157;-57
2021/09/14 06:13:36;;;;;;;31.67;13.77;;;;;;;;;;5016858;28;20026;-56
2021/09/14 06:16:03;;;;;;;32.40;15.93;;;;;;;;;;5018620;28;20048;-56
2021/09/14 06:18:28;;;;;;;27.65;13.02;;;;;;;;;;5024843;28;20104;-56
2021/09/14 06:20:54;;;;;;;26.73;12.38;;;;;;;;;;5029358;28;20563;-56
2021/09/14 06:23:20;;;;;;;29.95;12.45;;;;;;;;;;5028250;28;20029;-56
2021/09/14 06:25:45;;;;;;;25.55;12.77;;;;;;;;;;5021485;28;20059;-56
2021/09/14 06:28:10;;;;;;;22.40;12.40;;;;;;;;;;5022865;28;20048;-57
2021/09/14 06:30:36;;;;;;;20.02;11.57;;;;;;;;;;5026243;28;20056;-56
2021/09/14 06:33:01;;;;;;;27.10;12.40;;;;;;;;;;5027721;28;20559;-56
2021/09/14 06:35:27;;;;;;;24.90;11.80;;;;;;;;;;5019463;28;20470;-56
2021/09/14 06:37:52;;;;;;;27.67;12.65;;;;;;;;;;5019495;28;20029;-56
2021/09/14 06:40:18;;;;;;;28.83;13.10;;;;;;;;;;5025327;28;20031;-56
2021/09/14 06:42:43;;;;;;;30.10;12.65;;;;;;;;;;5019396;28;20174;-56
2021/09/14 06:45:10;;;;;;;23.00;12.98;;;;;;;;;;5014014;28;20377;-57
2021/09/14 06:47:36;;;;;;;27.17;13.32;;;;;;;;;;5015926;28;20345;-56
2021/09/14 06:50:01;;;;;;;20.88;13.43;;;;;;;;;;5023321;28;20030;-56
2021/09/14 06:52:27;;;;;;;23.67;12.52;;;;;;;;;;5021175;28;20036;-56
2021/09/14 06:54:52;;;;;;;20.85;12.68;;;;;;;;;;5021203;28;20029;-56
2021/09/14 06:57:19;;;;;;;21.42;12.60;;;;;;;;;;5024148;28;20033;-56
2021/09/14 06:59:45;;;;;;;21.50;12.52;;;;;;;;;;5014308;28;20025;-56
2021/09/14 07:02:10;;;;;;;19.05;11.60;;;;;;;;;;5017420;28;20041;-58
2021/09/14 07:04:35;;;;;;;19.65;11.43;;;;;;;;;;5013044;28;20025;-56
2021/09/14 07:07:01;;;;;;;18.33;10.80;;;;;;;;;;5020867;28;20132;-56
2021/09/14 07:09:26;;;;;;;19.65;11.32;;;;;;;;;;5017598;28;20025;-56
2021/09/14 07:11:52;;;;;;;18.15;11.18;;;;;;;;;;5020954;28;20025;-56
2021/09/14 07:14:17;;;;;;;19.00;11.63;;;;;;;;;;5021165;28;20479;-56
2021/09/14 07:16:42;;;;;;;15.25;10.50;;;;;;;;;;5026356;28;20131;-57
2021/09/14 07:19:08;;;;;;;18.80;11.10;;;;;;;;;;5024140;28;20025;-57
2021/09/14 07:21:33;;;;;;;16.83;10.40;;;;;;;;;;5019870;28;20030;-56
2021/09/14 07:23:59;;;;;;;15.98;10.30;;;;;;;;;;5027888;28;20037;-56
2021/09/14 07:26:24;;;;;;;15.13;10.35;;;;;;;;;;5022362;28;20040;-57
2021/09/14 07:28:50;;;;;;;17.20;9.90;;;;;;;;;;5029847;28;20037;-56
2021/09/14 07:31:15;;;;;;;16.60;9.55;;;;;;;;;;5017709;28;20037;-57
2021/09/14 07:33:41;;;;;;;19.63;10.40;;;;;;;;;;5018264;28;20026;-56
2021/09/14 07:36:08;;;;;;;16.95;10.43;;;;;;;;;;5027659;28;20034;-56
2021/09/14 07:38:36;;;;;;;17.13;9.77;;;;;;;;;;5019012;28;20036;-56
2021/09/14 07:41:02;;;;;;;16.63;9.45;;;;;;;;;;5019245;28;20041;-56
2021/09/14 07:43:28;;;;;;;17.00;9.80;;;;;;;;;;5021383;28;20076;-56
2021/09/14 07:45:53;;;;;;;14.95;10.20;;;;;;;;;;5025030;28;20060;-56
2021/09/14 07:48:18;;;;;;;15.38;10.23;;;;;;;;;;5018080;28;20053;-57
2021/09/14 07:50:44;;;;;;;15.38;9.57;;;;;;;;;;5022752;28;20037;-56
2021/09/14 07:53:09;;;;;;;13.40;9.38;;;;;;;;;;5018744;28;20018;-56
2021/09/14 07:55:35;;;;;;;15.00;9.10;;;;;;;;;;5018384;28;20029;-56
2021/09/14 07:58:01;;;;;;;16.00;9.70;;;;;;;;;;5015804;28;20040;-56
2021/09/14 08:00:26;;;;;;;13.15;8.93;;;;;;;;;;5018944;28;20041;-56
2021/09/14 08:02:56;;;;;;;14.48;9.40;;;;;;;;;;5017378;28;20031;-56
2021/09/14 08:05:23;;;;;;;14.55;9.55;;;;;;;;;;5022563;28;20052;-57
2021/09/14 08:07:49;;;;;;;15.40;9.48;;;;;;;;;;5017997;28;20476;-56
2021/09/14 08:10:15;;;;;;;17.02;10.15;;;;;;;;;;5024653;28;20028;-56
2021/09/14 08:12:40;;;;;;;14.93;9.50;;;;;;;;;;5020555;28;20143;-58
2021/09/14 08:15:06;;;;;;;15.20;8.95;;;;;;;;;;5020904;28;20030;-56
2021/09/14 08:17:31;;;;;;;19.20;10.68;;;;;;;;;;5019626;28;20022;-56
2021/09/14 08:19:57;;;;;;;14.68;9.32;;;;;;;;;;5019480;28;20078;-56
2021/09/14 08:22:23;;;;;;;12.63;9.32;;;;;;;;;;5018748;28;20387;-56
2021/09/14 08:24:49;;;;;;;15.48;9.27;;;;;;;;;;5021309;28;20494;-56
2021/09/14 08:27:14;;;;;;;14.65;9.32;;;;;;;;;;5029501;28;20029;-57
2021/09/14 08:29:40;;;;;;;13.30;8.68;;;;;;;;;;5029652;28;20083;-56
2021/09/14 08:32:06;;;;;;;17.75;9.50;;;;;;;;;;5032006;28;20120;-56
2021/09/14 08:34:31;;;;;;;13.75;8.77;;;;;;;;;;5026236;28;20183;-56
2021/09/14 08:36:57;;;;;;;13.82;9.25;;;;;;;;;;5031028;28;20039;-56
2021/09/14 08:39:22;;;;;;;15.52;9.65;;;;;;;;;;5025626;28;20106;-56
2021/09/14 08:41:49;;;;;;;14.98;9.63;;;;;;;;;;5027810;28;20124;-56
2021/09/14 08:44:14;;;;;;;18.00;9.50;;;;;;;;;;5024939;28;20551;-56
2021/09/14 08:46:42;;;;;;;14.68;9.40;;;;;;;;;;5027407;28;20049;-56
2021/09/14 08:49:09;;;;;;;16.38;10.18;;;;;;;;;;5022807;28;20136;-56
2021/09/14 08:51:34;;;;;;;15.57;9.40;;;;;;;;;;5024934;28;20025;-56
2021/09/14 08:53:59;;;;;;;13.27;9.18;;;;;;;;;;5026939;28;20391;-56
2021/09/14 08:56:25;;;;;;;15.32;9.60;;;;;;;;;;5026677;28;20481;-56
2021/09/14 08:58:57;;;;;;;17.65;9.75;;;;;;;;;;5022291;28;20029;-56
2021/09/14 09:01:23;;;;;;;14.48;9.25;;;;;;;;;;5021096;28;20049;-56
2021/09/14 09:03:56;;;;;;;13.43;9.82;;;;;;;;;;5019182;28;20052;-56
2021/09/14 09:06:39;;;;;;;11.52;8.65;;;;;;;;;;5022580;28;20446;-56
2021/09/14 09:09:18;;;;;;;14.98;9.20;;;;;;;;;;5025786;28;20030;-56
2021/09/14 09:11:59;;;;;;;14.93;9.02;;;;;;;;;;5025827;28;20033;-57
2021/09/14 09:14:55;;;;;;;14.18;8.65;;;;;;;;;;5025845;28;20099;-57
2021/09/14 09:17:20;;;;;;;17.67;8.68;;;;;;;;;;5019667;28;20033;-57
2021/09/14 09:19:58;;;;;;;12.77;9.13;;;;;;;;;;5021820;28;20082;-57
2021/09/14 09:22:24;;;;;;;11.55;8.90;;;;;;;;;;5021847;28;20156;-57
2021/09/14 09:24:52;;;;;;;10.98;8.15;;;;;;;;;;5016713;28;20021;-57
2021/09/14 09:27:29;;;;;;;12.55;8.70;;;;;;;;;;5027442;28;20052;-57
2021/09/14 09:30:03;;;;;;;12.73;8.85;;;;;;;;;;5028130;28;20044;-57
2021/09/14 09:32:45;;;;;;;11.82;8.80;;;;;;;;;;5030536;28;20029;-58
2021/09/14 09:35:12;;;;;;;14.50;8.80;;;;;;;;;;5013668;28;20025;-58
2021/09/14 09:37:38;;;;;;;13.43;8.73;;;;;;;;;;5025664;28;20210;-57
2021/09/14 09:40:04;;;;;;;18.23;9.25;;;;;;;;;;5018863;28;20224;-57
2021/09/14 09:42:31;;;;;;;12.23;8.48;;;;;;;;;;5019939;28;20029;-57
2021/09/14 09:44:58;;;;;;;11.68;8.77;;;;;;;;;;5018102;28;20064;-57
2021/09/14 09:47:24;;;;;;;13.45;8.02;;;;;;;;;;5023497;28;20033;-57
2021/09/14 09:49:50;;;;;;;13.40;8.88;;;;;;;;;;5021707;28;20033;-57
2021/09/14 09:52:18;;;;;;;13.48;9.25;;;;;;;;;;5021052;28;20432;-57
2021/09/14 09:54:45;;;;;;;14.20;9.10;;;;;;;;;;5021034;28;20475;-57
2021/09/14 09:57:11;;;;;;;14.68;8.85;;;;;;;;;;5020955;28;20029;-57
2021/09/14 09:59:36;;;;;;;14.15;9.55;;;;;;;;;;5015854;28;20052;-58
2021/09/14 10:02:13;;;;;;;16.27;8.93;;;;;;;;;;5024377;28;20439;-57
2021/09/14 10:04:45;;;;;;;13.60;9.00;;;;;;;;;;5024824;28;20599;-58
2021/09/14 10:07:12;;;;;;;13.10;8.38;;;;;;;;;;5026111;28;20036;-58
2021/09/14 10:09:48;;;;;;;11.40;8.75;;;;;;;;;;5024352;28;20028;-61
2021/09/14 10:12:21;;;;;;;14.43;8.50;;;;;;;;;;5023767;28;20029;-57
2021/09/14 10:15:12;;;;;;;10.77;8.23;;;;;;;;;;5025344;28;20078;-57
2021/09/14 10:17:52;;;;;;;10.35;7.75;;;;;;;;;;5020282;28;20120;-58
2021/09/14 10:20:22;;;;;;;10.27;7.60;;;;;;;;;;5020451;28;20021;-59
2021/09/14 10:22:59;;;;;;;11.45;7.70;;;;;;;;;;5022426;28;20620;-59
2021/09/14 10:25:25;;;;;;;12.00;7.40;;;;;;;;;;5022989;28;20038;-58
2021/09/14 10:27:50;;;;;;;13.77;7.00;;;;;;;;;;5020552;28;20034;-59
2021/09/14 10:30:23;;;;;;;7.80;6.78;;;;;;;;;;5024288;28;20034;-59
2021/09/14 10:32:48;;;;;;;13.20;7.53;;;;;;;;;;5029011;28;20083;-59
2021/09/14 10:35:29;;;;;;;11.23;7.22;;;;;;;;;;5025896;28;20022;-58
2021/09/14 10:38:06;;;;;;;9.27;7.18;;;;;;;;;;5013863;28;20404;-58
2021/09/14 10:40:42;;;;;;;10.35;7.40;;;;;;;;;;5019381;28;20439;-58
2021/09/14 10:43:18;;;;;;;10.27;7.78;;;;;;;;;;5020619;28;20025;-59
2021/09/14 10:45:44;;;;;;;12.05;7.50;;;;;;;;;;5023073;28;20041;-57
2021/09/14 10:48:21;;;;;;;11.80;7.20;;;;;;;;;;5022609;28;20025;-58
2021/09/14 10:50:46;;;;;;;10.85;7.10;;;;;;;;;;5021047;28;20602;-58
2021/09/14 10:53:29;;;;;;;11.65;7.32;;;;;;;;;;5022383;28;20053;-59
2021/09/14 10:55:58;;;;;;;9.65;7.05;;;;;;;;;;5020007;28;20033;-58
2021/09/14 10:58:25;;;;;;;12.23;6.95;;;;;;;;;;5024420;28;20037;-60
2021/09/14 11:00:50;;;;;;;14.75;6.88;;;;;;;;;;5022290;28;20033;-58
2021/09/14 11:03:17;;;;;;;9.45;7.10;;;;;;;;;;5025491;28;20037;-59
2021/09/14 11:05:49;;;;;;;12.20;7.90;;;;;;;;;;5022144;28;20040;-58
2021/09/14 11:08:14;;;;;;;14.60;7.60;;;;;;;;;;5023264;28;20029;-58
2021/09/14 11:10:42;;;;;;;12.77;7.55;;;;;;;;;;5020900;28;20044;-59
2021/09/14 11:13:09;;;;;;;10.20;7.50;;;;;;;;;;5030681;28;20017;-57
2021/09/14 11:15:35;;;;;;;10.48;7.25;;;;;;;;;;5021550;28;20053;-59
2021/09/14 11:18:01;;;;;;;10.75;7.60;;;;;;;;;;5019467;28;20043;-58
2021/09/14 11:20:26;;;;;;;9.60;7.30;;;;;;;;;;5016912;28;20108;-58
2021/09/14 11:22:53;;;;;;;9.57;6.88;;;;;;;;;;5020838;28;20507;-58
2021/09/14 11:25:26;;;;;;;10.38;7.35;;;;;;;;;;5022477;28;20060;-59
2021/09/14 11:27:58;;;;;;;9.60;7.95;;;;;;;;;;5019972;28;20150;-59
2021/09/14 11:30:25;;;;;;;10.75;7.22;;;;;;;;;;5027560;28;20028;-59
2021/09/14 11:32:52;;;;;;;14.82;7.47;;;;;;;;;;5020716;28;20071;-58
2021/09/14 11:35:18;;;;;;;12.68;7.35;;;;;;;;;;5022852;28;20074;-59
2021/09/14 11:37:44;;;;;;;11.25;7.57;;;;;;;;;;5030892;28;20029;-58
2021/09/14 11:40:20;;;;;;;9.43;7.20;;;;;;;;;;5024747;28;20034;-58
2021/09/14 11:43:00;;;;;;;13.55;7.80;;;;;;;;;;5017988;28;20539;-59
2021/09/14 11:45:27;;;;;;;10.68;7.07;;;;;;;;;;5015753;28;20072;-59
2021/09/14 11:47:54;;;;;;;14.13;8.27;;;;;;;;;;5020324;28;20018;-59
2021/09/14 11:50:38;;;;;;;11.85;7.55;;;;;;;;;;5017117;28;20041;-59
2021/09/14 11:53:10;;;;;;;14.23;7.63;;;;;;;;;;5024701;28;20025;-59
2021/09/14 11:55:40;;;;;;;11.75;7.72;;;;;;;;;;5018021;28;20033;-59
2021/09/14 11:58:05;;;;;;;9.25;7.13;;;;;;;;;;5021178;28;20040;-59
2021/09/14 12:00:36;;;;;;;9.80;7.20;;;;;;;;;;5013185;28;20025;-59
2021/09/14 12:03:02;;;;;;;9.57;7.07;;;;;;;;;;5020937;28;20029;-59
2021/09/14 12:05:27;;;;;;;10.02;7.93;;;;;;;;;;5021924;28;20029;-59
2021/09/14 12:08:02;;;;;;;10.07;7.30;;;;;;;;;;5024364;28;20034;-59
2021/09/14 12:10:28;;;;;;;13.77;8.48;;;;;;;;;;5020500;28;20053;-59
2021/09/14 12:12:55;;;;;;;14.00;7.38;;;;;;;;;;5021709;28;20425;-59
2021/09/14 12:15:21;;;;;;;9.10;7.15;;;;;;;;;;5026048;28;20057;-59
2021/09/14 12:17:50;;;;;;;12.43;7.07;;;;;;;;;;5018075;28;20072;-59
2021/09/14 12:20:15;;;;;;;11.30;7.60;;;;;;;;;;5025693;28;20028;-59
2021/09/14 12:22:41;;;;;;;10.50;7.07;;;;;;;;;;5016508;28;20482;-59
2021/09/14 12:25:07;;;;;;;12.23;8.82;;;;;;;;;;5018504;28;20040;-59
2021/09/14 12:27:33;;;;;;;9.15;7.10;;;;;;;;;;5019593;28;20041;-58
2021/09/14 12:29:59;;;;;;;7.80;6.30;;;;;;;;;;5020663;28;20071;-59
2021/09/14 12:32:26;;;;;;;10.95;6.43;;;;;;;;;;5020456;28;20029;-59
2021/09/14 12:34:51;;;;;;;7.82;6.50;;;;;;;;;;5025982;28;20555;-59
2021/09/14 12:37:17;;;;;;;24.05;7.43;;;;;;;;;;5029784;28;20116;-59
2021/09/14 12:39:42;;;;;;;9.48;7.00;;;;;;;;;;5023860;28;20029;-59
2021/09/14 12:42:08;;;;;;;12.55;7.30;;;;;;;;;;5019342;28;20026;-59
2021/09/14 12:44:33;;;;;;;10.75;7.45;;;;;;;;;;5013060;28;20384;-59
2021/09/14 12:46:59;;;;;;;12.73;7.53;;;;;;;;;;5018123;28;20064;-59
2021/09/14 12:49:25;;;;;;;9.35;6.95;;;;;;;;;;5018259;28;20034;-59
2021/09/14 12:51:50;;;;;;;12.38;7.38;;;;;;;;;;5026360;28;20026;-59
2021/09/14 12:54:16;;;;;;;13.20;7.00;;;;;;;;;;5016112;28;20018;-59
2021/09/14 12:56:42;;;;;;;10.98;7.38;;;;;;;;;;5018461;28;20029;-59
2021/09/14 12:59:08;;;;;;;10.85;7.20;;;;;;;;;;5019002;28;20374;-59
2021/09/14 13:01:33;;;;;;;12.88;6.88;;;;;;;;;;5022762;28;20025;-58
2021/09/14 13:03:59;;;;;;;11.98;7.43;;;;;;;;;;5020837;28;20026;-58
2021/09/14 13:06:24;;;;;;;11.80;6.82;;;;;;;;;;5026285;28;20451;-59
2021/09/14 13:08:50;;;;;;;14.93;7.43;;;;;;;;;;5017050;28;20022;-58
2021/09/14 13:11:15;;;;;;;12.15;7.57;;;;;;;;;;5020829;28;20464;-59
2021/09/14 13:16:25;;;;;;;8.13;6.50;;;;;;;;;;5027288;28;20564;-58
2021/09/14 13:18:51;;;;;;;8.45;7.18;;;;;;;;;;5027452;28;20025;-59
2021/09/14 13:21:18;;;;;;;9.10;6.88;;;;;;;;;;5024815;28;20037;-58
2021/09/14 13:23:47;;;;;;;11.13;6.90;;;;;;;;;;5023690;28;20056;-59
2021/09/14 13:26:13;;;;;;;9.50;7.03;;;;;;;;;;5023803;28;20741;-59
2021/09/14 13:28:38;;;;;;;9.93;6.32;;;;;;;;;;5027188;28;20033;-58
2021/09/14 13:31:04;;;;;;;10.23;6.60;;;;;;;;;;5025329;28;20098;-58
2021/09/14 13:33:30;;;;;;;12.32;6.72;;;;;;;;;;5020406;28;20083;-58
2021/09/14 13:35:56;;;;;;;8.68;6.72;;;;;;;;;;5025653;28;20036;-59
2021/09/14 13:38:22;;;;;;;10.15;7.10;;;;;;;;;;5031858;28;20036;-59
2021/09/14 13:40:51;;;;;;;10.70;6.63;;;;;;;;;;5027590;28;20021;-58
2021/09/14 13:43:33;;;;;;;11.00;6.63;;;;;;;;;;5017557;28;20038;-57
2021/09/14 13:46:11;;;;;;;10.23;6.72;;;;;;;;;;5023859;28;20041;-59
2021/09/14 13:48:38;;;;;;;12.18;7.20;;;;;;;;;;5021036;28;20032;-58
2021/09/14 13:51:04;;;;;;;9.57;6.50;;;;;;;;;;5017366;28;20031;-59
2021/09/14 13:53:29;;;;;;;12.43;6.93;;;;;;;;;;5023979;28;20111;-59
2021/09/14 13:55:55;;;;;;;7.53;6.25;;;;;;;;;;5024942;28;20039;-58
2021/09/14 13:58:20;;;;;;;8.77;6.55;;;;;;;;;;5022295;28;20128;-61
2021/09/14 14:00:46;;;;;;;9.30;6.35;;;;;;;;;;5024084;28;20037;-58
2021/09/14 14:03:11;;;;;;;11.45;7.20;;;;;;;;;;5026626;28;20032;-60
2021/09/14 14:05:37;;;;;;;8.40;6.72;;;;;;;;;;5025781;28;20049;-59
2021/09/14 14:08:02;;;;;;;8.25;6.25;;;;;;;;;;5022193;28;20026;-58
2021/09/14 14:10:28;;;;;;;11.85;6.57;;;;;;;;;;5019571;28;20060;-59
2021/09/14 14:12:54;;;;;;;10.38;6.88;;;;;;;;;;5022554;28;20544;-59
2021/09/14 14:15:19;;;;;;;11.98;6.82;;;;;;;;;;5026553;28;20510;-59
2021/09/14 14:17:45;;;;;;;9.05;6.20;;;;;;;;;;5022402;28;20040;-58
2021/09/14 14:20:11;;;;;;;11.30;6.97;;;;;;;;;;5017473;28;20030;-59
2021/09/14 14:22:37;;;;;;;10.02;6.82;;;;;;;;;;5023284;28;20040;-59
2021/09/14 14:25:03;;;;;;;9.77;6.25;;;;;;;;;;5020411;28;20030;-59
2021/09/14 14:27:28;;;;;;;11.63;6.53;;;;;;;;;;5025070;28;20047;-59
2021/09/14 14:29:54;;;;;;;8.38;6.65;;;;;;;;;;5024920;28;20086;-58
2021/09/14 14:32:19;;;;;;;10.43;6.10;;;;;;;;;;5023333;28;20034;-59
2021/09/14 14:34:44;;;;;;;9.95;6.53;;;;;;;;;;5030143;28;20028;-59
2021/09/14 14:37:10;;;;;;;9.45;6.57;;;;;;;;;;5027619;28;20120;-58
2021/09/14 14:39:35;;;;;;;10.95;6.10;;;;;;;;;;5025986;28;20519;-59
2021/09/14 14:42:01;;;;;;;14.00;6.65;;;;;;;;;;5025896;28;20388;-59
2021/09/14 14:44:26;;;;;;;9.32;6.90;;;;;;;;;;5018739;28;20370;-59
2021/09/14 14:46:51;;;;;;;8.15;6.85;;;;;;;;;;5013688;28;20056;-59
2021/09/14 14:49:17;;;;;;;10.57;6.90;;;;;;;;;;5022514;28;20017;-59
2021/09/14 14:51:42;;;;;;;12.13;6.85;;;;;;;;;;5019335;28;20029;-59
2021/09/14 14:54:09;;;;;;;10.27;6.50;;;;;;;;;;5020234;28;20356;-59
2021/09/14 14:56:34;;;;;;;11.32;6.40;;;;;;;;;;5023263;28;20036;-59
2021/09/14 14:59:00;;;;;;;12.38;7.18;;;;;;;;;;5022280;28;20021;-59
2021/09/14 15:01:25;;;;;;;8.88;6.63;;;;;;;;;;5021909;28;20377;-58
2021/09/14 15:03:51;;;;;;;9.90;6.57;;;;;;;;;;5018630;28;20034;-58
2021/09/14 15:06:16;;;;;;;8.55;6.70;;;;;;;;;;5023301;28;20038;-58
2021/09/14 15:08:41;;;;;;;11.90;6.68;;;;;;;;;;5016982;28;20495;-58
2021/09/14 15:11:07;;;;;;;8.98;6.68;;;;;;;;;;5024505;28;20021;-58
2021/09/14 15:13:32;;;;;;;11.35;6.55;;;;;;;;;;5019277;28;20472;-58
2021/09/14 15:15:58;;;;;;;9.52;6.90;;;;;;;;;;5019587;28;20044;-59
2021/09/14 15:18:24;;;;;;;7.85;6.43;;;;;;;;;;5021999;28;20040;-59
2021/09/14 15:20:49;;;;;;;10.68;6.60;;;;;;;;;;5021677;28;20022;-59
2021/09/14 15:23:16;;;;;;;12.50;7.30;;;;;;;;;;5021627;28;20557;-59
2021/09/14 15:25:42;;;;;;;12.52;7.60;;;;;;;;;;5026535;28;20183;-59
2021/09/14 15:28:07;;;;;;;8.77;6.68;;;;;;;;;;5023544;28;20033;-58
2021/09/14 15:30:54;;;;;;;11.98;6.93;;;;;;;;;;5021878;28;20342;-58
2021/09/14 15:33:21;;;;;;;12.38;7.50;;;;;;;;;;5023398;28;20175;-58